»·PEaware :: DAL2371 KJFK-KLAS

DAL2371 :: KJFK-KLAS

FLIGHT INFORMATION

Flight Status: Arrived
Operator:
Delta Air Lines
More flights by this operator :: More flights under this callsign
Pilot: Diana T. (22608)
Aircraft: BOEING 757-200
(B752)
More flights by this aircraft type
Origin: KJFK Kennedy Intl
United States
Destination: KLAS Harry Reid Intl
United States
More flights between these airports :: More routes between these airports
Route: +JFK5 RBV J230 AIR/N0463F360 RID SHB TTH STL HYS LAA J102 ALS RSK J64 PGS TYSSN5
File this flight plan on PilotEdge
Remarks: RMK / SIMBRIEF
Altitude:
(Current/Filed)
34,000ft
Speed:
(Current/Filed)
472kts
Departed: 16-Aug-20 06:43 AM
Arrived: 16-Aug-20 11:35 AM
Distance/Time
Traveled:
1947nm/4:52
Distance/Time
To Go:
Arrived

Flight Plot

Page will automatically refresh every two minutes.

Flight plan parsing failed; only flown route is shown


Map Options




Map Legend


Flown Route
Filed Route
Departure Airport
Arrival Airport
Navaid (VOR, NDB)
Fix

Horizontal Profiles

Position Reports

Time Latitude Longitude Heading Altitude Ground
Speed
16-Aug-20 05:43 40.641589 -73.783575 61 24ft 0kts
16-Aug-20 05:44 40.641589 -73.783575 61 24ft 0kts
16-Aug-20 05:45 40.641589 -73.783575 61 24ft 0kts
16-Aug-20 05:46 40.641589 -73.783575 61 24ft 0kts
16-Aug-20 05:47 40.641589 -73.783575 61 24ft 0kts
16-Aug-20 05:48 40.641589 -73.783575 61 24ft 0kts
16-Aug-20 05:49 40.641589 -73.783575 61 24ft 0kts
16-Aug-20 05:50 40.641589 -73.783575 61 24ft 0kts
16-Aug-20 05:51 40.641589 -73.783575 61 24ft 0kts
16-Aug-20 05:52 40.641589 -73.783575 61 24ft 0kts
16-Aug-20 05:53 40.641589 -73.783575 61 24ft 0kts
16-Aug-20 05:54 40.641589 -73.783575 61 24ft 0kts
16-Aug-20 05:55 40.641589 -73.783575 61 24ft 0kts
16-Aug-20 05:56 40.641589 -73.783575 61 24ft 0kts
16-Aug-20 05:57 40.641589 -73.783575 61 24ft 0kts
16-Aug-20 05:58 40.641589 -73.783575 61 24ft 0kts
16-Aug-20 05:59 40.641589 -73.783575 61 24ft 0kts
16-Aug-20 06:00 40.641589 -73.783575 61 24ft 0kts
16-Aug-20 06:01 40.641589 -73.783575 61 24ft 0kts
16-Aug-20 06:02 40.641589 -73.783575 61 24ft 0kts
16-Aug-20 06:03 40.641589 -73.783575 61 24ft 0kts
16-Aug-20 06:04 40.641589 -73.783575 61 24ft 0kts
16-Aug-20 06:05 40.641589 -73.783575 61 24ft 0kts
16-Aug-20 06:06 40.641589 -73.783575 61 24ft 0kts
16-Aug-20 06:07 40.641589 -73.783575 61 24ft 0kts
16-Aug-20 06:08 40.641589 -73.783575 61 24ft 0kts
16-Aug-20 06:09 40.641589 -73.783575 61 24ft 0kts
16-Aug-20 06:10 40.641589 -73.783575 61 24ft 0kts
16-Aug-20 06:11 40.641589 -73.783575 61 24ft 0kts
16-Aug-20 06:12 40.641589 -73.783575 61 24ft 0kts
16-Aug-20 06:13 40.641589 -73.783575 61 24ft 0kts
16-Aug-20 06:14 40.641589 -73.783575 61 24ft 0kts
16-Aug-20 06:15 40.641589 -73.783575 61 24ft 0kts
16-Aug-20 06:16 40.641589 -73.783575 61 24ft 0kts
16-Aug-20 06:17 40.641589 -73.783575 61 24ft 0kts
16-Aug-20 06:18 40.641589 -73.783575 61 24ft 0kts
16-Aug-20 06:19 40.641589 -73.783575 61 24ft 0kts
16-Aug-20 06:20 40.641589 -73.783575 61 24ft 0kts
16-Aug-20 06:21 40.641589 -73.783575 61 24ft 0kts
16-Aug-20 06:22 40.641589 -73.783575 61 24ft 0kts
16-Aug-20 06:23 40.641589 -73.783575 61 24ft 0kts
16-Aug-20 06:24 40.641589 -73.783575 61 24ft 0kts
16-Aug-20 06:25 40.641589 -73.783575 61 24ft 0kts
16-Aug-20 06:26 40.641589 -73.783575 61 24ft 0kts
16-Aug-20 06:27 40.641489 -73.783822 61 24ft 2kts
16-Aug-20 06:28 40.641374 -73.784579 112 24ft 2kts
16-Aug-20 06:29 40.641637 -73.784948 151 24ft 0kts
16-Aug-20 06:30 40.641637 -73.784947 151 24ft 0kts
16-Aug-20 06:31 40.641637 -73.784947 151 24ft 0kts
16-Aug-20 06:32 40.641637 -73.784947 151 24ft 0kts
16-Aug-20 06:33 40.641637 -73.784947 151 24ft 0kts
16-Aug-20 06:34 40.639368 -73.783244 151 24ft 18kts
16-Aug-20 06:35 40.634315 -73.782880 122 24ft 18kts
16-Aug-20 06:36 40.631840 -73.780172 186 24ft 15kts
16-Aug-20 06:37 40.626981 -73.783581 211 24ft 18kts
16-Aug-20 06:38 40.622971 -73.786668 192 24ft 17kts
16-Aug-20 06:39 40.622722 -73.786617 138 24ft 0kts
16-Aug-20 06:40 40.622722 -73.786617 138 24ft 0kts
16-Aug-20 06:41 40.623243 -73.784632 28 24ft 15kts
16-Aug-20 06:42 40.638360 -73.772817 30 25ft 158kts
16-Aug-20 06:43 40.678633 -73.736321 61 1967ft 188kts
16-Aug-20 06:44 40.686210 -73.662294 85 3267ft 228kts
16-Aug-20 06:45 40.682791 -73.577276 125 5154ft 252kts
16-Aug-20 06:46 40.618081 -73.581050 232 7190ft 280kts
16-Aug-20 06:47 40.602777 -73.681322 264 9330ft 286kts
16-Aug-20 06:48 40.588344 -73.790659 244 10250ft 341kts
16-Aug-20 06:49 40.535040 -73.900164 235 12135ft 360kts
16-Aug-20 06:51 40.476219 -74.006962 234 14377ft 361kts
16-Aug-20 06:52 40.416545 -74.114026 234 16181ft 367kts
16-Aug-20 06:53 40.355535 -74.223058 234 17860ft 372kts
16-Aug-20 06:54 40.293446 -74.333617 234 19435ft 379kts
16-Aug-20 06:55 40.230287 -74.445687 234 21000ft 384kts
16-Aug-20 06:56 40.196448 -74.577693 262 22413ft 391kts
16-Aug-20 06:57 40.184701 -74.721381 262 23692ft 399kts
16-Aug-20 06:58 40.172962 -74.867412 262 25040ft 403kts
16-Aug-20 06:59 40.161027 -75.014092 262 26254ft 408kts
16-Aug-20 07:00 40.148770 -75.162500 262 27359ft 414kts
16-Aug-20 07:01 40.136057 -75.313847 262 28493ft 418kts
16-Aug-20 07:02 40.123025 -75.466575 262 29452ft 424kts
16-Aug-20 07:03 40.109655 -75.620949 262 30454ft 427kts
16-Aug-20 07:04 40.096095 -75.775001 261 31624ft 425kts
16-Aug-20 07:05 40.082543 -75.926872 260 33286ft 413kts
16-Aug-20 07:06 40.069109 -76.075145 260 34038ft 406kts
16-Aug-20 07:07 40.055604 -76.222050 260 34039ft 406kts
16-Aug-20 07:07 40.044180 -76.344811 260 34038ft 406kts
16-Aug-20 07:09 40.027973 -76.516443 260 34035ft 407kts
16-Aug-20 07:09 40.016163 -76.639544 260 34034ft 408kts
16-Aug-20 07:10 40.001882 -76.786459 259 34044ft 408kts
16-Aug-20 07:12 39.984830 -76.959435 259 34052ft 411kts
16-Aug-20 07:12 39.972492 -77.082989 259 34058ft 412kts
16-Aug-20 07:13 39.957375 -77.232525 258 34056ft 414kts
16-Aug-20 07:15 39.954478 -77.408468 267 34055ft 419kts
16-Aug-20 07:15 39.958509 -77.536199 267 34053ft 419kts
16-Aug-20 07:16 39.963197 -77.688328 266 34061ft 419kts
16-Aug-20 07:17 39.967716 -77.840843 266 34059ft 419kts
16-Aug-20 07:18 39.972228 -77.993462 266 34058ft 419kts
16-Aug-20 07:19 39.976413 -78.146228 266 34071ft 419kts
16-Aug-20 07:20 39.980390 -78.298917 266 34083ft 420kts
16-Aug-20 07:21 39.984179 -78.451882 267 34081ft 420kts
16-Aug-20 07:22 39.987768 -78.605063 267 34080ft 421kts
16-Aug-20 07:23 39.991126 -78.756964 266 34088ft 421kts
16-Aug-20 07:24 39.994326 -78.910790 266 34087ft 423kts
16-Aug-20 07:25 39.997330 -79.065549 267 34086ft 424kts
16-Aug-20 07:26 40.000143 -79.220110 267 34086ft 426kts
16-Aug-20 07:27 40.002761 -79.375554 267 34083ft 427kts
16-Aug-20 07:28 40.005161 -79.531309 267 34085ft 428kts
16-Aug-20 07:29 40.007342 -79.685445 267 34091ft 428kts
16-Aug-20 07:30 40.009323 -79.841201 267 34088ft 428kts
16-Aug-20 07:31 40.011111 -79.997248 267 34085ft 428kts
16-Aug-20 07:32 40.012683 -80.153980 267 34070ft 428kts
16-Aug-20 07:33 40.014042 -80.310253 267 34066ft 428kts
16-Aug-20 07:34 40.015200 -80.467028 267 34065ft 430kts
16-Aug-20 07:35 40.016147 -80.623957 268 34066ft 433kts
16-Aug-20 07:36 40.016877 -80.781574 267 34071ft 434kts
16-Aug-20 07:37 40.011174 -80.939736 264 34068ft 436kts
16-Aug-20 07:38 40.003249 -81.098980 265 34056ft 438kts
16-Aug-20 07:39 39.995144 -81.258657 264 34857ft 439kts
16-Aug-20 07:40 39.986877 -81.417045 265 36018ft 435kts
16-Aug-20 07:41 39.978382 -81.575605 265 36050ft 436kts
16-Aug-20 07:42 39.969642 -81.734587 264 36055ft 438kts
16-Aug-20 07:43 39.960681 -81.893815 265 36053ft 439kts
16-Aug-20 07:44 39.951491 -82.053157 265 36039ft 438kts
16-Aug-20 07:45 39.942097 -82.212174 265 36034ft 438kts
16-Aug-20 07:46 39.932500 -82.370970 264 36033ft 437kts
16-Aug-20 07:47 39.922673 -82.529861 264 36033ft 437kts
16-Aug-20 07:48 39.912995 -82.682977 264 36037ft 437kts
16-Aug-20 07:49 39.902705 -82.842300 263 36035ft 436kts
16-Aug-20 07:50 39.892374 -82.998966 263 36044ft 435kts
16-Aug-20 07:51 39.881757 -83.156706 263 36045ft 436kts
16-Aug-20 07:52 39.870915 -83.314438 263 36044ft 435kts
16-Aug-20 07:53 39.859842 -83.472546 263 36043ft 435kts
16-Aug-20 07:54 39.848619 -83.629587 263 36043ft 435kts
16-Aug-20 07:55 39.837267 -83.785689 262 36048ft 434kts
16-Aug-20 07:56 39.825636 -83.942394 262 36045ft 434kts
16-Aug-20 07:57 39.813770 -84.099397 262 36046ft 434kts
16-Aug-20 07:58 39.801733 -84.255947 262 36044ft 434kts
16-Aug-20 07:59 39.789381 -84.413609 263 36044ft 434kts
16-Aug-20 08:00 39.776834 -84.571058 263 36044ft 435kts
16-Aug-20 08:01 39.764090 -84.728417 262 36047ft 436kts
16-Aug-20 08:02 39.749291 -84.885595 260 36048ft 435kts
16-Aug-20 08:03 39.730530 -85.041431 260 36049ft 435kts
16-Aug-20 08:04 39.711383 -85.197960 260 36063ft 436kts
16-Aug-20 08:05 39.692043 -85.354282 260 36062ft 436kts
16-Aug-20 08:06 39.672510 -85.510330 260 36061ft 436kts
16-Aug-20 08:07 39.652780 -85.666189 259 36064ft 434kts
16-Aug-20 08:08 39.632928 -85.821550 260 36065ft 434kts
16-Aug-20 08:09 39.617889 -85.978088 262 36068ft 435kts
16-Aug-20 08:10 39.602813 -86.134441 262 36084ft 434kts
16-Aug-20 08:11 39.587478 -86.291027 262 36090ft 436kts
16-Aug-20 08:12 39.571899 -86.447891 262 36091ft 436kts
16-Aug-20 08:13 39.556138 -86.604457 262 36089ft 435kts
16-Aug-20 08:14 39.540261 -86.759967 261 36093ft 434kts
16-Aug-20 08:15 39.524111 -86.916069 261 36093ft 433kts
16-Aug-20 08:16 39.507777 -87.071868 261 36110ft 433kts
16-Aug-20 08:17 39.491276 -87.227200 261 36117ft 433kts
16-Aug-20 08:18 39.465325 -87.380243 256 36116ft 432kts
16-Aug-20 08:19 39.437918 -87.532173 256 36115ft 431kts
16-Aug-20 08:20 39.410303 -87.683734 256 36122ft 431kts
16-Aug-20 08:21 39.382366 -87.835878 256 36120ft 431kts
16-Aug-20 08:22 39.354397 -87.986942 256 36137ft 431kts
16-Aug-20 08:23 39.326132 -88.138461 256 36153ft 431kts
16-Aug-20 08:24 39.297770 -88.289337 256 36153ft 432kts
16-Aug-20 08:25 39.269145 -88.440387 256 36152ft 432kts
16-Aug-20 08:26 39.240238 -88.591812 256 36150ft 433kts
16-Aug-20 08:27 39.211269 -88.742381 256 36156ft 434kts
16-Aug-20 08:28 39.181840 -88.894237 256 36164ft 435kts
16-Aug-20 08:29 39.152316 -89.045431 256 36180ft 435kts
16-Aug-20 08:30 39.122416 -89.197414 256 36181ft 435kts
16-Aug-20 08:31 39.092407 -89.348842 256 36180ft 436kts
16-Aug-20 08:32 39.062075 -89.500771 256 36179ft 436kts
16-Aug-20 08:33 39.031931 -89.650658 255 36178ft 437kts
16-Aug-20 08:34 39.000794 -89.804323 255 36179ft 437kts
16-Aug-20 08:35 38.969754 -89.956425 255 36175ft 437kts
16-Aug-20 08:36 38.938445 -90.108717 256 36172ft 441kts
16-Aug-20 08:37 38.906939 -90.260918 256 36174ft 442kts
16-Aug-20 08:38 38.875449 -90.411931 256 36171ft 442kts
16-Aug-20 08:39 38.863764 -90.567820 273 36171ft 441kts
16-Aug-20 08:40 38.869220 -90.725884 272 36174ft 442kts
16-Aug-20 08:41 38.874495 -90.884254 273 36173ft 442kts
16-Aug-20 08:42 38.879562 -91.042790 273 36177ft 444kts
16-Aug-20 08:43 38.884418 -91.201461 273 36189ft 445kts
16-Aug-20 08:44 38.889083 -91.361078 273 36190ft 445kts
16-Aug-20 08:45 38.893523 -91.520297 273 36189ft 445kts
16-Aug-20 08:46 38.897739 -91.679266 273 36192ft 446kts
16-Aug-20 08:47 38.901719 -91.837162 273 36192ft 446kts
16-Aug-20 08:49 38.905525 -91.997035 273 36194ft 447kts
16-Aug-20 08:50 38.909124 -92.157641 274 36199ft 449kts
16-Aug-20 08:51 38.912507 -92.318115 274 36200ft 449kts
16-Aug-20 08:52 38.915670 -92.478731 274 36200ft 449kts
16-Aug-20 08:53 38.918610 -92.639298 274 36199ft 449kts
16-Aug-20 08:54 38.921325 -92.799261 273 36201ft 449kts
16-Aug-20 08:55 38.923835 -92.960079 273 36197ft 450kts
16-Aug-20 08:56 38.926126 -93.121367 273 36187ft 450kts
16-Aug-20 08:57 38.928185 -93.281810 273 36187ft 449kts
16-Aug-20 08:58 38.930035 -93.443254 273 36187ft 450kts
16-Aug-20 08:59 38.931658 -93.604213 273 36187ft 451kts
16-Aug-20 09:00 38.933056 -93.764567 273 36189ft 450kts
16-Aug-20 09:01 38.934243 -93.925540 273 36195ft 450kts
16-Aug-20 09:02 38.935208 -94.087207 273 36226ft 451kts
16-Aug-20 09:03 38.935942 -94.248228 273 36227ft 451kts
16-Aug-20 09:04 38.936464 -94.409792 273 36227ft 451kts
16-Aug-20 09:05 38.936760 -94.571241 273 36226ft 451kts
16-Aug-20 09:05 38.936840 -94.704719 272 36229ft 451kts
16-Aug-20 09:06 38.936733 -94.866061 272 36227ft 451kts
16-Aug-20 09:08 38.936325 -95.054131 272 36222ft 451kts
16-Aug-20 09:09 38.935731 -95.216078 272 36222ft 451kts
16-Aug-20 09:09 38.935067 -95.350731 272 36221ft 451kts
16-Aug-20 09:10 38.934068 -95.512033 272 36224ft 451kts
16-Aug-20 09:11 38.932855 -95.672321 272 36226ft 451kts
16-Aug-20 09:12 38.931417 -95.833433 272 36225ft 450kts
16-Aug-20 09:13 38.929755 -95.994935 272 36225ft 450kts
16-Aug-20 09:14 38.927882 -96.155281 272 36225ft 449kts
16-Aug-20 09:15 38.925784 -96.315900 272 36225ft 449kts
16-Aug-20 09:16 38.923471 -96.476186 272 36224ft 449kts
16-Aug-20 09:17 38.920923 -96.637241 272 36223ft 448kts
16-Aug-20 09:18 38.918205 -96.796125 271 36226ft 448kts
16-Aug-20 09:19 38.915244 -96.956040 271 36226ft 448kts
16-Aug-20 09:20 38.912043 -97.116891 271 36228ft 447kts
16-Aug-20 09:21 38.908638 -97.277016 271 36227ft 447kts
16-Aug-20 09:22 38.905008 -97.437372 271 36225ft 446kts
16-Aug-20 09:23 38.901181 -97.596793 271 36224ft 444kts
16-Aug-20 09:24 38.897144 -97.756125 271 36227ft 445kts
16-Aug-20 09:25 38.892891 -97.915348 271 36227ft 445kts
16-Aug-20 09:26 38.888417 -98.074709 270 36215ft 441kts
16-Aug-20 09:27 38.883746 -98.233263 270 36207ft 442kts
16-Aug-20 09:28 38.878874 -98.391543 270 36207ft 443kts
16-Aug-20 09:29 38.873763 -98.550396 270 36205ft 442kts
16-Aug-20 09:30 38.868467 -98.708596 269 36210ft 443kts
16-Aug-20 09:31 38.862913 -98.867852 269 36209ft 442kts
16-Aug-20 09:32 38.857159 -99.026651 269 36208ft 442kts
16-Aug-20 09:33 38.851240 -99.184133 269 36208ft 441kts
16-Aug-20 09:34 38.839273 -99.317745 261 36207ft 442kts
16-Aug-20 09:35 38.813162 -99.472417 260 36206ft 441kts
16-Aug-20 09:36 38.786073 -99.626122 260 36206ft 439kts
16-Aug-20 09:37 38.758854 -99.778633 259 36210ft 438kts
16-Aug-20 09:38 38.731266 -99.931900 259 36215ft 437kts
16-Aug-20 09:39 38.703654 -100.084070 259 36226ft 434kts
16-Aug-20 09:40 38.675846 -100.236094 259 36226ft 435kts
16-Aug-20 09:41 38.647924 -100.387572 259 36225ft 435kts
16-Aug-20 09:42 38.619769 -100.539121 259 36225ft 435kts
16-Aug-20 09:43 38.591341 -100.690964 258 36230ft 436kts
16-Aug-20 09:44 38.562717 -100.842711 258 36230ft 436kts
16-Aug-20 09:45 38.533909 -100.994249 258 36235ft 437kts
16-Aug-20 09:46 38.504938 -101.145516 258 36238ft 437kts
16-Aug-20 09:47 38.475851 -101.296231 258 36235ft 435kts
16-Aug-20 09:48 38.446614 -101.446620 258 36235ft 435kts
16-Aug-20 09:49 38.417221 -101.596704 258 36234ft 433kts
16-Aug-20 09:50 38.387707 -101.746293 257 36240ft 432kts
16-Aug-20 09:51 38.358131 -101.895149 257 36240ft 432kts
16-Aug-20 09:52 38.328348 -102.043966 257 36243ft 432kts
16-Aug-20 09:53 38.298352 -102.192772 257 36242ft 432kts
16-Aug-20 09:54 38.268264 -102.340998 257 36234ft 432kts
16-Aug-20 09:55 38.237863 -102.489723 257 36226ft 433kts
16-Aug-20 09:56 38.207250 -102.638436 257 36225ft 435kts
16-Aug-20 09:57 38.171708 -102.786742 253 36230ft 437kts
16-Aug-20 09:58 38.133872 -102.934357 253 36230ft 439kts
16-Aug-20 09:59 38.095760 -103.082026 253 36252ft 440kts
16-Aug-20 10:00 38.057224 -103.230443 253 36283ft 441kts
16-Aug-20 10:01 38.018582 -103.378384 253 36282ft 442kts
16-Aug-20 10:02 37.979551 -103.526957 253 36280ft 440kts
16-Aug-20 10:03 37.940510 -103.674680 252 36285ft 442kts
16-Aug-20 10:04 37.900959 -103.823459 252 36285ft 443kts
16-Aug-20 10:05 37.862113 -103.968775 252 36289ft 443kts
16-Aug-20 10:06 37.822262 -104.117000 252 36321ft 443kts
16-Aug-20 10:07 37.782285 -104.264828 252 36350ft 443kts
16-Aug-20 10:08 37.742173 -104.412341 252 36363ft 443kts
16-Aug-20 10:09 37.701799 -104.559967 252 36363ft 444kts
16-Aug-20 10:10 37.661456 -104.706643 252 36367ft 445kts
16-Aug-20 10:11 37.620445 -104.854931 252 36366ft 446kts
16-Aug-20 10:12 37.579233 -105.003102 252 36428ft 446kts
16-Aug-20 10:13 37.537875 -105.150976 252 36511ft 447kts
16-Aug-20 10:14 37.496936 -105.296549 252 36511ft 448kts
16-Aug-20 10:15 37.455049 -105.444669 253 36510ft 448kts
16-Aug-20 10:16 37.412907 -105.592878 253 36510ft 449kts
16-Aug-20 10:17 37.371131 -105.738977 252 36513ft 449kts
16-Aug-20 10:18 37.331387 -105.885887 254 36530ft 447kts
16-Aug-20 10:19 37.293453 -106.035989 255 36633ft 448kts
16-Aug-20 10:20 37.255372 -106.185694 255 36674ft 449kts
16-Aug-20 10:21 37.217089 -106.335244 255 36666ft 448kts
16-Aug-20 10:22 37.178709 -106.484306 255 36660ft 448kts
16-Aug-20 10:23 37.140170 -106.633099 255 36652ft 447kts
16-Aug-20 10:24 37.103620 -106.773390 254 36652ft 447kts
16-Aug-20 10:25 37.065535 -106.918789 254 36562ft 447kts
16-Aug-20 10:26 37.027090 -107.064734 254 36434ft 447kts
16-Aug-20 10:27 36.987793 -107.213054 254 36431ft 447kts
16-Aug-20 10:28 36.948343 -107.361113 254 36431ft 447kts
16-Aug-20 10:29 36.908557 -107.509583 254 36430ft 447kts
16-Aug-20 10:30 36.872369 -107.643874 254 36425ft 448kts
16-Aug-20 10:31 36.834401 -107.784065 254 36429ft 448kts
16-Aug-20 10:32 36.794344 -107.931170 254 36428ft 449kts
16-Aug-20 10:33 36.753940 -108.078691 254 36406ft 447kts
16-Aug-20 10:34 36.724206 -108.229442 260 36348ft 445kts
16-Aug-20 10:35 36.696486 -108.380403 260 36335ft 445kts
16-Aug-20 10:36 36.668638 -108.530017 260 36335ft 445kts
16-Aug-20 10:37 36.640983 -108.677395 259 36339ft 445kts
16-Aug-20 10:38 36.612488 -108.828140 259 36343ft 445kts
16-Aug-20 10:39 36.583893 -108.978287 259 36347ft 445kts
16-Aug-20 10:40 36.554946 -109.129180 259 36358ft 445kts
16-Aug-20 10:41 36.525965 -109.279150 259 36373ft 444kts
16-Aug-20 10:42 36.496788 -109.429070 259 36373ft 445kts
16-Aug-20 10:44 36.467405 -109.578941 259 36372ft 445kts
16-Aug-20 10:45 36.439016 -109.722744 258 36376ft 445kts
16-Aug-20 10:46 36.409250 -109.872504 258 36376ft 446kts
16-Aug-20 10:47 36.379164 -110.022778 258 36353ft 446kts
16-Aug-20 10:48 36.348938 -110.172711 258 36313ft 446kts
16-Aug-20 10:49 36.318544 -110.322437 258 36310ft 446kts
16-Aug-20 10:50 36.287949 -110.472070 258 36310ft 446kts
16-Aug-20 10:51 36.257163 -110.621603 258 36309ft 445kts
16-Aug-20 10:52 36.227499 -110.764706 257 36313ft 445kts
16-Aug-20 10:53 36.196266 -110.914400 257 36313ft 445kts
16-Aug-20 10:54 36.164978 -111.063385 257 36318ft 444kts
16-Aug-20 10:55 36.133514 -111.212214 257 36321ft 445kts
16-Aug-20 10:56 36.102317 -111.360983 257 36319ft 444kts
16-Aug-20 10:57 36.071203 -111.509801 257 36319ft 445kts
16-Aug-20 10:58 36.040625 -111.655091 257 36319ft 445kts
16-Aug-20 10:58 36.014099 -111.780316 257 36322ft 445kts
16-Aug-20 11:00 35.977362 -111.952650 256 36342ft 445kts
16-Aug-20 11:01 35.945552 -112.100825 256 36369ft 445kts
16-Aug-20 11:01 35.918919 -112.224148 256 36375ft 445kts
16-Aug-20 11:02 35.888353 -112.364865 256 36378ft 445kts
16-Aug-20 11:04 35.850427 -112.538268 256 36386ft 446kts
16-Aug-20 11:05 35.819662 -112.677941 256 35494ft 423kts
16-Aug-20 11:05 35.793731 -112.795104 256 33682ft 426kts
16-Aug-20 11:06 35.761756 -112.938760 255 31482ft 438kts
16-Aug-20 11:08 35.723377 -113.109973 255 28864ft 441kts
16-Aug-20 11:08 35.696283 -113.230076 254 27088ft 432kts
16-Aug-20 11:09 35.664117 -113.371881 254 25057ft 423kts
16-Aug-20 11:10 35.632794 -113.510450 258 23089ft 413kts
16-Aug-20 11:11 35.639930 -113.649370 280 21189ft 402kts
16-Aug-20 11:12 35.658595 -113.781454 279 19368ft 392kts
16-Aug-20 11:13 35.677139 -113.912767 279 17540ft 383kts
16-Aug-20 11:14 35.695142 -114.041260 279 15862ft 373kts
16-Aug-20 11:15 35.712667 -114.167336 280 14168ft 367kts
16-Aug-20 11:16 35.729656 -114.290503 280 12494ft 359kts
16-Aug-20 11:17 35.771235 -114.388624 329 12088ft 309kts
16-Aug-20 11:18 35.849091 -114.432752 339 12000ft 307kts
16-Aug-20 11:19 35.929666 -114.471027 339 10824ft 304kts
16-Aug-20 11:20 36.006026 -114.506881 339 10103ft 272kts
16-Aug-20 11:21 36.038907 -114.573557 271 9617ft 243kts
16-Aug-20 11:22 36.038544 -114.654543 271 8560ft 239kts
16-Aug-20 11:23 36.038228 -114.735569 271 7988ft 214kts
16-Aug-20 11:24 36.038096 -114.809023 271 8000ft 213kts
16-Aug-20 11:25 36.038140 -114.882927 271 7999ft 213kts
16-Aug-20 11:26 36.038413 -114.956696 271 7999ft 213kts
16-Aug-20 11:27 36.038854 -115.026023 271 7580ft 190kts
16-Aug-20 11:28 36.039503 -115.089190 271 5941ft 183kts
16-Aug-20 11:29 36.040490 -115.152572 271 4154ft 183kts
16-Aug-20 11:30 36.040625 -115.208052 268 3979ft 154kts
16-Aug-20 11:31 36.060696 -115.237374 41 3186ft 138kts
16-Aug-20 11:32 36.074026 -115.194468 90 2764ft 136kts
16-Aug-20 11:33 36.073663 -115.148929 90 2190ft 87kts
16-Aug-20 11:34 36.074930 -115.138240 53 2190ft 0kts
16-Aug-20 11:35 36.074930 -115.138240 53 2190ft 0kts
16-Aug-20 11:36 36.076201 -115.137896 359 2190ft 8kts
16-Aug-20 11:37 36.078120 -115.137949 336 2190ft 6kts
16-Aug-20 11:38 36.079180 -115.139130 42 2190ft 8kts
16-Aug-20 11:39 36.080350 -115.138755 344 2190ft 0kts
16-Aug-20 11:40 36.080456 -115.138791 344 2190ft 0kts
16-Aug-20 11:41 36.080456 -115.138791 344 2190ft 0kts
16-Aug-20 11:42 36.080456 -115.138791 344 2190ft 0kts
16-Aug-20 11:43 36.080456 -115.138791 344 2190ft 0kts
16-Aug-20 11:44 36.080456 -115.138791 344 2190ft 0kts
16-Aug-20 11:45 36.080456 -115.138791 344 2190ft 0kts

Navigation Log

Ident Type
Flight plan parsing failed, navigation log unavailable